sensor_id;sensor_type;location;lat;lon;timestamp;temperature;humidity
52295;DHT22;38243;53.212;6.574;2022-12-18T00:01:32;13.20;79.60
52295;DHT22;38243;53.212;6.574;2022-12-18T00:04:00;13.20;79.80
52295;DHT22;38243;53.212;6.574;2022-12-18T00:06:28;13.10;79.50
52295;DHT22;38243;53.212;6.574;2022-12-18T00:08:55;13.20;79.60
52295;DHT22;38243;53.212;6.574;2022-12-18T00:11:24;13.10;79.70
52295;DHT22;38243;53.212;6.574;2022-12-18T00:13:51;13.10;79.50
52295;DHT22;38243;53.212;6.574;2022-12-18T00:16:21;13.10;79.80
52295;DHT22;38243;53.212;6.574;2022-12-18T00:18:49;13.10;79.90
52295;DHT22;38243;53.212;6.574;2022-12-18T00:21:15;13.20;80.10
52295;DHT22;38243;53.212;6.574;2022-12-18T00:23:43;13.20;80.10
52295;DHT22;38243;53.212;6.574;2022-12-18T00:26:13;13.20;80.00
52295;DHT22;38243;53.212;6.574;2022-12-18T00:28:40;13.20;80.20
52295;DHT22;38243;53.212;6.574;2022-12-18T00:31:09;13.20;80.00
52295;DHT22;38243;53.212;6.574;2022-12-18T00:33:35;13.20;80.20
52295;DHT22;38243;53.212;6.574;2022-12-18T00:38:28;13.20;80.20
52295;DHT22;38243;53.212;6.574;2022-12-18T00:40:54;13.10;80.00
52295;DHT22;38243;53.212;6.574;2022-12-18T00:43:20;13.20;80.10
52295;DHT22;38243;53.212;6.574;2022-12-18T00:45:45;13.20;80.00
52295;DHT22;38243;53.212;6.574;2022-12-18T00:48:11;13.10;79.70
52295;DHT22;38243;53.212;6.574;2022-12-18T00:50:37;13.20;79.90
52295;DHT22;38243;53.212;6.574;2022-12-18T00:53:03;13.10;79.90
52295;DHT22;38243;53.212;6.574;2022-12-18T00:55:29;13.10;79.80
52295;DHT22;38243;53.212;6.574;2022-12-18T00:57:55;13.10;80.00
52295;DHT22;38243;53.212;6.574;2022-12-18T01:00:20;13.10;79.90
52295;DHT22;38243;53.212;6.574;2022-12-18T01:02:46;13.10;79.50
52295;DHT22;38243;53.212;6.574;2022-12-18T01:05:13;13.10;79.80
52295;DHT22;38243;53.212;6.574;2022-12-18T01:07:39;13.20;79.70
52295;DHT22;38243;53.212;6.574;2022-12-18T01:10:06;13.10;79.60
52295;DHT22;38243;53.212;6.574;2022-12-18T01:12:32;13.10;79.50
52295;DHT22;38243;53.212;6.574;2022-12-18T01:14:58;13.10;79.50
52295;DHT22;38243;53.212;6.574;2022-12-18T01:17:24;13.10;79.50
52295;DHT22;38243;53.212;6.574;2022-12-18T01:19:50;13.10;79.70
52295;DHT22;38243;53.212;6.574;2022-12-18T01:22:16;13.10;79.70
52295;DHT22;38243;53.212;6.574;2022-12-18T01:24:42;13.10;79.70
52295;DHT22;38243;53.212;6.574;2022-12-18T01:27:07;13.10;79.60
52295;DHT22;38243;53.212;6.574;2022-12-18T01:29:33;13.10;79.90
52295;DHT22;38243;53.212;6.574;2022-12-18T01:31:59;13.10;80.10
52295;DHT22;38243;53.212;6.574;2022-12-18T01:34:24;13.10;79.70
52295;DHT22;38243;53.212;6.574;2022-12-18T01:36:50;13.10;79.60
52295;DHT22;38243;53.212;6.574;2022-12-18T01:39:18;13.10;79.70
52295;DHT22;38243;53.212;6.574;2022-12-18T01:41:44;13.10;79.60
52295;DHT22;38243;53.212;6.574;2022-12-18T01:45:04;13.10;79.50
52295;DHT22;38243;53.212;6.574;2022-12-18T01:47:39;13.10;79.40
52295;DHT22;38243;53.212;6.574;2022-12-18T01:50:16;13.10;79.70
52295;DHT22;38243;53.212;6.574;2022-12-18T01:52:45;13.10;79.60
52295;DHT22;38243;53.212;6.574;2022-12-18T01:55:13;13.10;79.50
52295;DHT22;38243;53.212;6.574;2022-12-18T01:57:40;13.10;79.70
52295;DHT22;38243;53.212;6.574;2022-12-18T02:00:16;13.00;79.60
52295;DHT22;38243;53.212;6.574;2022-12-18T02:02:44;13.10;79.70
52295;DHT22;38243;53.212;6.574;2022-12-18T02:05:12;13.10;79.80
52295;DHT22;38243;53.212;6.574;2022-12-18T02:16:06;13.00;80.30
52295;DHT22;38243;53.212;6.574;2022-12-18T02:18:36;13.00;79.60
52295;DHT22;38243;53.212;6.574;2022-12-18T02:21:25;13.00;79.40
52295;DHT22;38243;53.212;6.574;2022-12-18T02:26:52;13.00;79.60
52295;DHT22;38243;53.212;6.574;2022-12-18T02:29:25;13.00;79.70
52295;DHT22;38243;53.212;6.574;2022-12-18T02:31:57;13.00;79.70
52295;DHT22;38243;53.212;6.574;2022-12-18T02:34:28;13.00;79.70
52295;DHT22;38243;53.212;6.574;2022-12-18T02:36:56;13.00;79.50
52295;DHT22;38243;53.212;6.574;2022-12-18T02:39:25;13.00;79.30
52295;DHT22;38243;53.212;6.574;2022-12-18T02:41:52;13.00;79.30
52295;DHT22;38243;53.212;6.574;2022-12-18T02:44:18;13.00;79.50
52295;DHT22;38243;53.212;6.574;2022-12-18T02:46:50;13.00;79.60
52295;DHT22;38243;53.212;6.574;2022-12-18T02:52:28;13.00;79.50
52295;DHT22;38243;53.212;6.574;2022-12-18T03:00:37;13.00;79.30
52295;DHT22;38243;53.212;6.574;2022-12-18T03:05:49;12.90;79.20
52295;DHT22;38243;53.212;6.574;2022-12-18T03:08:19;12.90;79.20
52295;DHT22;38243;53.212;6.574;2022-12-18T03:10:54;12.90;78.90
52295;DHT22;38243;53.212;6.574;2022-12-18T03:13:40;12.90;79.40
52295;DHT22;38243;53.212;6.574;2022-12-18T03:16:11;12.90;79.20
52295;DHT22;38243;53.212;6.574;2022-12-18T03:18:52;12.90;79.10
52295;DHT22;38243;53.212;6.574;2022-12-18T03:21:25;12.90;79.00
52295;DHT22;38243;53.212;6.574;2022-12-18T03:23:52;12.90;79.10
52295;DHT22;38243;53.212;6.574;2022-12-18T03:26:24;12.90;79.20
52295;DHT22;38243;53.212;6.574;2022-12-18T03:28:56;13.00;79.80
52295;DHT22;38243;53.212;6.574;2022-12-18T03:31:23;12.90;79.10
52295;DHT22;38243;53.212;6.574;2022-12-18T03:36:19;12.90;79.00
52295;DHT22;38243;53.212;6.574;2022-12-18T03:38:45;12.90;79.00
52295;DHT22;38243;53.212;6.574;2022-12-18T03:41:25;12.90;79.00
52295;DHT22;38243;53.212;6.574;2022-12-18T03:44:10;12.90;79.10
52295;DHT22;38243;53.212;6.574;2022-12-18T03:50:07;12.90;79.10
52295;DHT22;38243;53.212;6.574;2022-12-18T03:52:40;12.90;79.10
52295;DHT22;38243;53.212;6.574;2022-12-18T03:55:09;12.90;79.00
52295;DHT22;38243;53.212;6.574;2022-12-18T03:57:37;12.90;78.90
52295;DHT22;38243;53.212;6.574;2022-12-18T04:00:07;12.90;79.10
52295;DHT22;38243;53.212;6.574;2022-12-18T04:02:34;12.90;79.10
52295;DHT22;38243;53.212;6.574;2022-12-18T04:05:03;12.90;79.10
52295;DHT22;38243;53.212;6.574;2022-12-18T04:07:30;12.90;79.10
52295;DHT22;38243;53.212;6.574;2022-12-18T04:09:56;12.90;78.90
52295;DHT22;38243;53.212;6.574;2022-12-18T04:12:29;12.90;78.80
52295;DHT22;38243;53.212;6.574;2022-12-18T04:14:55;12.90;78.90
52295;DHT22;38243;53.212;6.574;2022-12-18T04:17:21;12.90;79.20
52295;DHT22;38243;53.212;6.574;2022-12-18T04:19:47;12.90;78.70
52295;DHT22;38243;53.212;6.574;2022-12-18T04:22:12;12.90;78.90
52295;DHT22;38243;53.212;6.574;2022-12-18T04:24:38;12.90;78.90
52295;DHT22;38243;53.212;6.574;2022-12-18T04:27:04;12.80;78.70
52295;DHT22;38243;53.212;6.574;2022-12-18T04:29:30;12.80;78.60
52295;DHT22;38243;53.212;6.574;2022-12-18T04:31:56;12.90;78.80
52295;DHT22;38243;53.212;6.574;2022-12-18T04:34:22;12.90;78.70
52295;DHT22;38243;53.212;6.574;2022-12-18T04:36:48;12.80;78.70
52295;DHT22;38243;53.212;6.574;2022-12-18T04:39:14;12.80;79.10
52295;DHT22;38243;53.212;6.574;2022-12-18T04:41:40;12.80;78.90
52295;DHT22;38243;53.212;6.574;2022-12-18T04:44:06;12.80;78.80
52295;DHT22;38243;53.212;6.574;2022-12-18T04:46:32;12.80;78.80
52295;DHT22;38243;53.212;6.574;2022-12-18T04:48:58;12.80;78.70
52295;DHT22;38243;53.212;6.574;2022-12-18T04:51:23;12.80;78.90
52295;DHT22;38243;53.212;6.574;2022-12-18T04:53:49;12.90;79.00
52295;DHT22;38243;53.212;6.574;2022-12-18T04:56:16;12.80;78.70
52295;DHT22;38243;53.212;6.574;2022-12-18T04:58:43;12.90;79.00
52295;DHT22;38243;53.212;6.574;2022-12-18T05:01:11;12.80;78.70
52295;DHT22;38243;53.212;6.574;2022-12-18T05:03:37;12.90;78.90
52295;DHT22;38243;53.212;6.574;2022-12-18T05:06:04;12.80;78.80
52295;DHT22;38243;53.212;6.574;2022-12-18T05:08:30;12.90;78.90
52295;DHT22;38243;53.212;6.574;2022-12-18T05:13:30;12.90;78.80
52295;DHT22;38243;53.212;6.574;2022-12-18T05:15:56;13.00;78.80
52295;DHT22;38243;53.212;6.574;2022-12-18T05:18:24;12.80;78.80
52295;DHT22;38243;53.212;6.574;2022-12-18T05:20:51;12.80;78.80
52295;DHT22;38243;53.212;6.574;2022-12-18T05:23:18;12.80;78.60
52295;DHT22;38243;53.212;6.574;2022-12-18T05:26:07;12.80;78.50
52295;DHT22;38243;53.212;6.574;2022-12-18T05:28:34;12.90;78.70
52295;DHT22;38243;53.212;6.574;2022-12-18T05:31:03;12.80;78.70
52295;DHT22;38243;53.212;6.574;2022-12-18T05:33:32;12.80;78.60
52295;DHT22;38243;53.212;6.574;2022-12-18T05:36:05;12.80;78.80
52295;DHT22;38243;53.212;6.574;2022-12-18T05:38:33;12.80;78.50
52295;DHT22;38243;53.212;6.574;2022-12-18T05:40:59;12.80;78.70
52295;DHT22;38243;53.212;6.574;2022-12-18T05:43:26;12.80;78.70
52295;DHT22;38243;53.212;6.574;2022-12-18T05:45:52;12.80;78.50
52295;DHT22;38243;53.212;6.574;2022-12-18T05:48:19;12.80;78.60
52295;DHT22;38243;53.212;6.574;2022-12-18T05:50:46;12.80;78.60
52295;DHT22;38243;53.212;6.574;2022-12-18T05:53:14;12.80;78.50
52295;DHT22;38243;53.212;6.574;2022-12-18T05:55:42;12.80;78.30
52295;DHT22;38243;53.212;6.574;2022-12-18T05:58:09;12.80;79.00
52295;DHT22;38243;53.212;6.574;2022-12-18T06:00:38;12.80;78.70
52295;DHT22;38243;53.212;6.574;2022-12-18T06:03:08;12.80;78.60
52295;DHT22;38243;53.212;6.574;2022-12-18T06:05:39;12.80;78.60
52295;DHT22;38243;53.212;6.574;2022-12-18T06:08:05;12.70;78.50
52295;DHT22;38243;53.212;6.574;2022-12-18T06:10:31;12.80;78.50
52295;DHT22;38243;53.212;6.574;2022-12-18T06:12:57;12.80;78.50
52295;DHT22;38243;53.212;6.574;2022-12-18T06:15:23;12.70;78.50
52295;DHT22;38243;53.212;6.574;2022-12-18T06:17:50;12.70;78.50
52295;DHT22;38243;53.212;6.574;2022-12-18T06:20:15;12.80;78.60
52295;DHT22;38243;53.212;6.574;2022-12-18T06:22:41;12.70;78.50
52295;DHT22;38243;53.212;6.574;2022-12-18T06:25:07;12.70;78.30
52295;DHT22;38243;53.212;6.574;2022-12-18T06:27:33;12.70;78.20
52295;DHT22;38243;53.212;6.574;2022-12-18T06:30:00;12.70;78.30
52295;DHT22;38243;53.212;6.574;2022-12-18T06:32:26;12.70;78.20
52295;DHT22;38243;53.212;6.574;2022-12-18T06:34:52;12.70;78.20
52295;DHT22;38243;53.212;6.574;2022-12-18T06:37:19;12.70;78.20
52295;DHT22;38243;53.212;6.574;2022-12-18T06:39:44;12.70;78.10
52295;DHT22;38243;53.212;6.574;2022-12-18T06:42:10;12.70;77.90
52295;DHT22;38243;53.212;6.574;2022-12-18T06:44:36;12.70;78.00
52295;DHT22;38243;53.212;6.574;2022-12-18T06:47:01;12.70;78.40
52295;DHT22;38243;53.212;6.574;2022-12-18T06:49:27;12.70;78.50
52295;DHT22;38243;53.212;6.574;2022-12-18T06:51:53;12.70;78.50
52295;DHT22;38243;53.212;6.574;2022-12-18T06:54:18;12.60;78.30
52295;DHT22;38243;53.212;6.574;2022-12-18T06:56:47;12.60;78.30
52295;DHT22;38243;53.212;6.574;2022-12-18T06:59:14;12.60;78.30
52295;DHT22;38243;53.212;6.574;2022-12-18T07:01:40;12.60;78.30
52295;DHT22;38243;53.212;6.574;2022-12-18T07:04:06;12.60;78.30
52295;DHT22;38243;53.212;6.574;2022-12-18T07:06:32;12.50;78.30
52295;DHT22;38243;53.212;6.574;2022-12-18T07:08:58;12.50;78.10
52295;DHT22;38243;53.212;6.574;2022-12-18T07:11:24;12.50;78.30
52295;DHT22;38243;53.212;6.574;2022-12-18T07:13:49;12.50;78.80
52295;DHT22;38243;53.212;6.574;2022-12-18T07:16:20;12.60;78.10
52295;DHT22;38243;53.212;6.574;2022-12-18T07:18:46;12.50;77.70
52295;DHT22;38243;53.212;6.574;2022-12-18T07:21:16;12.40;77.80
52295;DHT22;38243;53.212;6.574;2022-12-18T07:23:42;12.50;78.40
52295;DHT22;38243;53.212;6.574;2022-12-18T07:26:11;12.50;78.10
52295;DHT22;38243;53.212;6.574;2022-12-18T07:28:38;12.40;78.20
52295;DHT22;38243;53.212;6.574;2022-12-18T07:31:12;12.40;77.80
52295;DHT22;38243;53.212;6.574;2022-12-18T07:33:39;12.40;77.90
52295;DHT22;38243;53.212;6.574;2022-12-18T07:36:05;12.40;78.10
52295;DHT22;38243;53.212;6.574;2022-12-18T07:38:32;12.40;77.70
52295;DHT22;38243;53.212;6.574;2022-12-18T07:41:09;12.40;78.30
52295;DHT22;38243;53.212;6.574;2022-12-18T07:43:35;12.40;78.00
52295;DHT22;38243;53.212;6.574;2022-12-18T07:46:01;12.40;78.10
52295;DHT22;38243;53.212;6.574;2022-12-18T07:48:28;12.30;78.10
52295;DHT22;38243;53.212;6.574;2022-12-18T07:51:01;12.40;78.10
52295;DHT22;38243;53.212;6.574;2022-12-18T07:53:27;12.40;78.20
52295;DHT22;38243;53.212;6.574;2022-12-18T07:56:01;12.40;78.00
52295;DHT22;38243;53.212;6.574;2022-12-18T07:58:28;12.40;78.00
52295;DHT22;38243;53.212;6.574;2022-12-18T08:01:05;12.50;78.30
52295;DHT22;38243;53.212;6.574;2022-12-18T08:03:31;12.50;78.30
52295;DHT22;38243;53.212;6.574;2022-12-18T08:06:01;12.50;78.00
52295;DHT22;38243;53.212;6.574;2022-12-18T08:08:28;12.50;77.80
52295;DHT22;38243;53.212;6.574;2022-12-18T08:10:55;12.50;78.20
52295;DHT22;38243;53.212;6.574;2022-12-18T08:13:21;12.60;78.10
52295;DHT22;38243;53.212;6.574;2022-12-18T08:15:55;12.70;78.10
52295;DHT22;38243;53.212;6.574;2022-12-18T08:18:20;12.80;77.80
52295;DHT22;38243;53.212;6.574;2022-12-18T08:20:46;12.80;77.60
52295;DHT22;38243;53.212;6.574;2022-12-18T08:23:12;12.60;66.50
52295;DHT22;38243;53.212;6.574;2022-12-18T08:25:37;12.30;59.80
52295;DHT22;38243;53.212;6.574;2022-12-18T08:28:03;11.80;57.20
52295;DHT22;38243;53.212;6.574;2022-12-18T08:30:29;11.40;56.70
52295;DHT22;38243;53.212;6.574;2022-12-18T08:32:55;11.10;55.90
52295;DHT22;38243;53.212;6.574;2022-12-18T08:35:21;10.70;56.00
52295;DHT22;38243;53.212;6.574;2022-12-18T08:37:47;10.40;56.30
52295;DHT22;38243;53.212;6.574;2022-12-18T08:40:12;10.20;55.50
52295;DHT22;38243;53.212;6.574;2022-12-18T08:42:38;9.80;55.80
52295;DHT22;38243;53.212;6.574;2022-12-18T08:45:23;9.70;58.00
52295;DHT22;38243;53.212;6.574;2022-12-18T08:47:50;9.80;61.30
52295;DHT22;38243;53.212;6.574;2022-12-18T08:50:15;9.90;63.10
52295;DHT22;38243;53.212;6.574;2022-12-18T08:52:41;10.00;64.30
52295;DHT22;38243;53.212;6.574;2022-12-18T08:55:08;10.20;65.20
52295;DHT22;38243;53.212;6.574;2022-12-18T08:57:34;10.40;65.80
52295;DHT22;38243;53.212;6.574;2022-12-18T09:00:00;10.50;66.40
52295;DHT22;38243;53.212;6.574;2022-12-18T09:02:25;10.70;66.80
52295;DHT22;38243;53.212;6.574;2022-12-18T09:04:51;10.80;67.30
52295;DHT22;38243;53.212;6.574;2022-12-18T09:07:17;10.90;67.60
52295;DHT22;38243;53.212;6.574;2022-12-18T09:09:43;11.10;67.90
52295;DHT22;38243;53.212;6.574;2022-12-18T09:12:08;11.20;68.20
52295;DHT22;38243;53.212;6.574;2022-12-18T09:14:34;11.30;68.30
52295;DHT22;38243;53.212;6.574;2022-12-18T09:17:00;11.50;68.50
52295;DHT22;38243;53.212;6.574;2022-12-18T09:19:25;11.50;68.50
52295;DHT22;38243;53.212;6.574;2022-12-18T09:21:51;11.70;68.90
52295;DHT22;38243;53.212;6.574;2022-12-18T09:24:17;11.70;69.00
52295;DHT22;38243;53.212;6.574;2022-12-18T09:26:43;11.80;69.10
52295;DHT22;38243;53.212;6.574;2022-12-18T09:29:22;11.90;69.20
52295;DHT22;38243;53.212;6.574;2022-12-18T09:31:48;12.00;69.20
52295;DHT22;38243;53.212;6.574;2022-12-18T09:34:15;12.10;69.40
52295;DHT22;38243;53.212;6.574;2022-12-18T09:36:42;12.10;69.40
52295;DHT22;38243;53.212;6.574;2022-12-18T09:39:07;12.20;69.40
52295;DHT22;38243;53.212;6.574;2022-12-18T09:44:26;12.30;69.60
52295;DHT22;38243;53.212;6.574;2022-12-18T09:46:54;12.40;69.70
52295;DHT22;38243;53.212;6.574;2022-12-18T09:49:26;12.50;69.80
52295;DHT22;38243;53.212;6.574;2022-12-18T09:52:03;12.50;70.00
52295;DHT22;38243;53.212;6.574;2022-12-18T09:54:39;12.50;70.00
52295;DHT22;38243;53.212;6.574;2022-12-18T09:57:18;12.60;70.30
52295;DHT22;38243;53.212;6.574;2022-12-18T09:59:49;12.60;70.60
52295;DHT22;38243;53.212;6.574;2022-12-18T10:02:21;12.60;70.90
52295;DHT22;38243;53.212;6.574;2022-12-18T10:05:07;12.60;70.90
52295;DHT22;38243;53.212;6.574;2022-12-18T10:10:37;12.70;71.60
52295;DHT22;38243;53.212;6.574;2022-12-18T10:13:42;12.70;71.90
52295;DHT22;38243;53.212;6.574;2022-12-18T10:21:40;12.80;72.40
52295;DHT22;38243;53.212;6.574;2022-12-18T10:26:52;12.90;72.40
52295;DHT22;38243;53.212;6.574;2022-12-18T10:29:18;13.00;72.50
52295;DHT22;38243;53.212;6.574;2022-12-18T10:31:44;13.10;72.50
52295;DHT22;38243;53.212;6.574;2022-12-18T10:34:11;13.10;72.60
52295;DHT22;38243;53.212;6.574;2022-12-18T10:36:37;13.10;72.60
52295;DHT22;38243;53.212;6.574;2022-12-18T10:39:15;13.10;72.30
52295;DHT22;38243;53.212;6.574;2022-12-18T10:41:41;13.10;72.60
52295;DHT22;38243;53.212;6.574;2022-12-18T10:44:25;13.10;72.50
52295;DHT22;38243;53.212;6.574;2022-12-18T10:47:03;13.10;72.60
52295;DHT22;38243;53.212;6.574;2022-12-18T10:49:32;13.00;72.70
52295;DHT22;38243;53.212;6.574;2022-12-18T10:52:18;13.00;73.10
52295;DHT22;38243;53.212;6.574;2022-12-18T10:54:57;13.00;73.40
52295;DHT22;38243;53.212;6.574;2022-12-18T10:57:40;13.00;73.80
52295;DHT22;38243;53.212;6.574;2022-12-18T11:00:29;13.00;73.90
52295;DHT22;38243;53.212;6.574;2022-12-18T11:02:56;13.00;74.10
52295;DHT22;38243;53.212;6.574;2022-12-18T11:05:29;13.00;74.10
52295;DHT22;38243;53.212;6.574;2022-12-18T11:07:56;13.00;74.00
52295;DHT22;38243;53.212;6.574;2022-12-18T11:10:32;13.00;74.10
52295;DHT22;38243;53.212;6.574;2022-12-18T11:13:23;13.00;74.30
52295;DHT22;38243;53.212;6.574;2022-12-18T11:15:50;13.00;74.20
52295;DHT22;38243;53.212;6.574;2022-12-18T11:18:25;13.00;74.40
52295;DHT22;38243;53.212;6.574;2022-12-18T11:21:11;13.00;74.40
52295;DHT22;38243;53.212;6.574;2022-12-18T11:23:46;13.00;74.40
52295;DHT22;38243;53.212;6.574;2022-12-18T11:26:13;13.00;74.40
52295;DHT22;38243;53.212;6.574;2022-12-18T11:28:50;13.00;74.40
52295;DHT22;38243;53.212;6.574;2022-12-18T11:31:20;13.00;74.60
52295;DHT22;38243;53.212;6.574;2022-12-18T11:34:07;13.00;74.80
52295;DHT22;38243;53.212;6.574;2022-12-18T11:36:53;13.00;75.00
52295;DHT22;38243;53.212;6.574;2022-12-18T11:44:45;13.00;75.10
52295;DHT22;38243;53.212;6.574;2022-12-18T11:50:03;13.00;75.30
52295;DHT22;38243;53.212;6.574;2022-12-18T11:52:40;13.00;75.30
52295;DHT22;38243;53.212;6.574;2022-12-18T11:55:25;13.00;75.30
52295;DHT22;38243;53.212;6.574;2022-12-18T12:06:34;13.00;75.60
52295;DHT22;38243;53.212;6.574;2022-12-18T12:11:56;13.00;75.80
52295;DHT22;38243;53.212;6.574;2022-12-18T12:14:47;13.00;76.20
52295;DHT22;38243;53.212;6.574;2022-12-18T12:17:27;13.00;77.10
52295;DHT22;38243;53.212;6.574;2022-12-18T12:23:05;13.00;77.40
52295;DHT22;38243;53.212;6.574;2022-12-18T12:26:15;13.10;77.20
52295;DHT22;38243;53.212;6.574;2022-12-18T12:35:50;13.10;77.20
52295;DHT22;38243;53.212;6.574;2022-12-18T12:40:45;13.10;77.10
52295;DHT22;38243;53.212;6.574;2022-12-18T12:43:21;13.10;77.10
52295;DHT22;38243;53.212;6.574;2022-12-18T12:46:09;13.10;77.00
52295;DHT22;38243;53.212;6.574;2022-12-18T12:51:11;13.10;77.60
52295;DHT22;38243;53.212;6.574;2022-12-18T12:53:38;13.10;77.80
52295;DHT22;38243;53.212;6.574;2022-12-18T12:56:05;13.10;77.80
52295;DHT22;38243;53.212;6.574;2022-12-18T12:58:56;13.10;77.90
52295;DHT22;38243;53.212;6.574;2022-12-18T13:13:18;13.10;77.60
52295;DHT22;38243;53.212;6.574;2022-12-18T13:15:46;13.10;77.30
52295;DHT22;38243;53.212;6.574;2022-12-18T13:18:18;13.10;77.70
52295;DHT22;38243;53.212;6.574;2022-12-18T13:21:17;13.10;77.60
52295;DHT22;38243;53.212;6.574;2022-12-18T13:23:44;13.10;77.40
52295;DHT22;38243;53.212;6.574;2022-12-18T13:31:14;13.10;77.50
52295;DHT22;38243;53.212;6.574;2022-12-18T13:33:42;13.10;77.60
52295;DHT22;38243;53.212;6.574;2022-12-18T13:36:12;13.10;77.40
52295;DHT22;38243;53.212;6.574;2022-12-18T13:38:39;13.10;77.60
52295;DHT22;38243;53.212;6.574;2022-12-18T13:43:45;13.10;77.40
52295;DHT22;38243;53.212;6.574;2022-12-18T13:46:42;13.10;77.40
52295;DHT22;38243;53.212;6.574;2022-12-18T13:51:42;13.10;77.10
52295;DHT22;38243;53.212;6.574;2022-12-18T13:54:34;13.10;77.30
52295;DHT22;38243;53.212;6.574;2022-12-18T13:57:01;13.10;77.20
52295;DHT22;38243;53.212;6.574;2022-12-18T13:59:37;13.10;77.00
52295;DHT22;38243;53.212;6.574;2022-12-18T14:02:19;13.10;77.00
52295;DHT22;38243;53.212;6.574;2022-12-18T14:04:46;13.10;77.60
52295;DHT22;38243;53.212;6.574;2022-12-18T14:09:43;13.10;77.40
52295;DHT22;38243;53.212;6.574;2022-12-18T14:12:24;13.10;77.30
52295;DHT22;38243;53.212;6.574;2022-12-18T14:18:26;13.10;77.60
52295;DHT22;38243;53.212;6.574;2022-12-18T14:20:57;13.10;77.30
52295;DHT22;38243;53.212;6.574;2022-12-18T14:23:41;13.10;77.40
52295;DHT22;38243;53.212;6.574;2022-12-18T14:26:39;13.10;77.60
52295;DHT22;38243;53.212;6.574;2022-12-18T14:29:21;13.10;77.60
52295;DHT22;38243;53.212;6.574;2022-12-18T14:32:09;13.10;77.40
52295;DHT22;38243;53.212;6.574;2022-12-18T14:34:36;13.10;77.50
52295;DHT22;38243;53.212;6.574;2022-12-18T14:37:01;13.20;77.70
52295;DHT22;38243;53.212;6.574;2022-12-18T14:39:27;13.10;77.40
52295;DHT22;38243;53.212;6.574;2022-12-18T14:41:53;13.20;77.40
52295;DHT22;38243;53.212;6.574;2022-12-18T14:44:18;13.20;77.00
52295;DHT22;38243;53.212;6.574;2022-12-18T14:46:47;13.20;77.00
52295;DHT22;38243;53.212;6.574;2022-12-18T14:51:59;13.10;76.70
52295;DHT22;38243;53.212;6.574;2022-12-18T14:54:26;13.10;76.60
52295;DHT22;38243;53.212;6.574;2022-12-18T14:57:14;13.10;76.70
52295;DHT22;38243;53.212;6.574;2022-12-18T14:59:44;13.10;76.30
52295;DHT22;38243;53.212;6.574;2022-12-18T15:02:23;13.10;76.30
52295;DHT22;38243;53.212;6.574;2022-12-18T15:05:04;13.10;76.20
52295;DHT22;38243;53.212;6.574;2022-12-18T15:07:44;13.10;76.00
52295;DHT22;38243;53.212;6.574;2022-12-18T15:18:04;13.10;76.00
52295;DHT22;38243;53.212;6.574;2022-12-18T15:20:41;13.10;76.20
52295;DHT22;38243;53.212;6.574;2022-12-18T15:26:02;13.10;76.00
52295;DHT22;38243;53.212;6.574;2022-12-18T15:33:43;13.10;76.90
52295;DHT22;38243;53.212;6.574;2022-12-18T15:36:16;13.10;76.80
52295;DHT22;38243;53.212;6.574;2022-12-18T15:38:47;13.10;76.80
52295;DHT22;38243;53.212;6.574;2022-12-18T15:41:18;13.10;76.70
52295;DHT22;38243;53.212;6.574;2022-12-18T15:43:45;13.10;76.70
52295;DHT22;38243;53.212;6.574;2022-12-18T15:46:14;13.10;76.80
52295;DHT22;38243;53.212;6.574;2022-12-18T15:48:42;13.10;77.00
52295;DHT22;38243;53.212;6.574;2022-12-18T15:53:39;13.10;76.60
52295;DHT22;38243;53.212;6.574;2022-12-18T15:56:10;13.10;76.40
52295;DHT22;38243;53.212;6.574;2022-12-18T15:58:54;13.10;76.50
52295;DHT22;38243;53.212;6.574;2022-12-18T16:01:21;13.10;76.30
52295;DHT22;38243;53.212;6.574;2022-12-18T16:03:48;13.20;76.30
52295;DHT22;38243;53.212;6.574;2022-12-18T16:06:13;13.10;76.10
52295;DHT22;38243;53.212;6.574;2022-12-18T16:08:39;13.10;76.00
52295;DHT22;38243;53.212;6.574;2022-12-18T16:11:05;13.10;75.80
52295;DHT22;38243;53.212;6.574;2022-12-18T16:13:31;13.10;76.20
52295;DHT22;38243;53.212;6.574;2022-12-18T16:15:57;13.10;75.80
52295;DHT22;38243;53.212;6.574;2022-12-18T16:18:22;13.10;75.90
52295;DHT22;38243;53.212;6.574;2022-12-18T16:20:48;13.10;75.50
52295;DHT22;38243;53.212;6.574;2022-12-18T16:23:14;13.10;75.80
52295;DHT22;38243;53.212;6.574;2022-12-18T16:25:40;13.10;76.00
52295;DHT22;38243;53.212;6.574;2022-12-18T16:28:06;13.10;75.80
52295;DHT22;38243;53.212;6.574;2022-12-18T16:30:31;13.10;75.80
52295;DHT22;38243;53.212;6.574;2022-12-18T16:32:58;13.10;75.60
52295;DHT22;38243;53.212;6.574;2022-12-18T16:35:24;13.10;75.60
52295;DHT22;38243;53.212;6.574;2022-12-18T16:37:50;13.10;75.80
52295;DHT22;38243;53.212;6.574;2022-12-18T16:40:17;13.10;76.00
52295;DHT22;38243;53.212;6.574;2022-12-18T16:42:44;13.10;76.00
52295;DHT22;38243;53.212;6.574;2022-12-18T16:45:13;13.10;76.00
52295;DHT22;38243;53.212;6.574;2022-12-18T16:47:39;13.10;75.80
52295;DHT22;38243;53.212;6.574;2022-12-18T16:50:06;13.10;75.80
52295;DHT22;38243;53.212;6.574;2022-12-18T16:52:33;13.10;75.60
52295;DHT22;38243;53.212;6.574;2022-12-18T16:54:58;13.10;75.60
52295;DHT22;38243;53.212;6.574;2022-12-18T16:57:24;13.10;75.50
52295;DHT22;38243;53.212;6.574;2022-12-18T16:59:50;13.10;75.50
52295;DHT22;38243;53.212;6.574;2022-12-18T17:02:24;13.10;75.30
52295;DHT22;38243;53.212;6.574;2022-12-18T17:04:54;13.10;75.40
52295;DHT22;38243;53.212;6.574;2022-12-18T17:07:20;13.10;75.50
52295;DHT22;38243;53.212;6.574;2022-12-18T17:09:46;13.10;75.50
52295;DHT22;38243;53.212;6.574;2022-12-18T17:12:11;13.10;75.70
52295;DHT22;38243;53.212;6.574;2022-12-18T17:14:37;13.10;75.40
52295;DHT22;38243;53.212;6.574;2022-12-18T17:17:03;13.10;75.30
52295;DHT22;38243;53.212;6.574;2022-12-18T17:19:29;13.10;75.10
52295;DHT22;38243;53.212;6.574;2022-12-18T17:21:55;13.10;75.00
52295;DHT22;38243;53.212;6.574;2022-12-18T17:24:21;13.10;74.90
52295;DHT22;38243;53.212;6.574;2022-12-18T17:26:47;13.10;74.70
52295;DHT22;38243;53.212;6.574;2022-12-18T17:29:15;13.10;74.60
52295;DHT22;38243;53.212;6.574;2022-12-18T17:31:41;13.10;74.70
52295;DHT22;38243;53.212;6.574;2022-12-18T17:34:08;13.10;74.30
52295;DHT22;38243;53.212;6.574;2022-12-18T17:36:34;13.10;74.40
52295;DHT22;38243;53.212;6.574;2022-12-18T17:39:01;13.10;74.30
52295;DHT22;38243;53.212;6.574;2022-12-18T17:41:28;13.10;74.20
52295;DHT22;38243;53.212;6.574;2022-12-18T17:43:59;13.10;73.90
52295;DHT22;38243;53.212;6.574;2022-12-18T17:46:26;13.10;74.00
52295;DHT22;38243;53.212;6.574;2022-12-18T17:48:55;13.10;74.10
52295;DHT22;38243;53.212;6.574;2022-12-18T17:51:21;13.10;74.00
52295;DHT22;38243;53.212;6.574;2022-12-18T17:53:47;13.10;74.10
52295;DHT22;38243;53.212;6.574;2022-12-18T17:56:15;13.10;73.90
52295;DHT22;38243;53.212;6.574;2022-12-18T17:58:41;13.10;74.00